Time;durP1;ratioP1;P1;durP2;ratioP2;P2;SDS_P1;SDS_P2;PMS_P1;PMS_P2;Temp;Humidity;BMP_temperature;BMP_pressure;BME280_temperature;BME280_humidity;BME280_pressure;Samples;Min_cycle;Max_cycle;Signal;HPM_P1;HPM_P2
2022/06/27 00:00:03;;;;;;;2.00;1.38;;;;;;;20.11;94.59;98317.47;5030671;27;104017;-75
2022/06/27 00:02:43;;;;;;;1.10;1.00;;;;;;;19.91;93.37;98335.06;5030436;27;104142;-75
2022/06/27 00:05:12;;;;;;;1.20;0.80;;;;;;;20.07;90.64;98320.72;5027385;27;103208;-75
2022/06/27 00:07:40;;;;;;;1.20;0.80;;;;;;;20.25;87.12;98313.22;5029884;27;104345;-75
2022/06/27 00:10:09;;;;;;;1.40;0.73;;;;;;;20.27;85.83;98323.78;5026561;27;103414;-75
2022/06/27 00:12:40;;;;;;;1.20;0.90;;;;;;;20.20;85.95;98353.13;5030049;27;103370;-75
2022/06/27 00:15:11;;;;;;;1.25;0.90;;;;;;;20.46;84.79;98380.44;5027440;27;103235;-75
2022/06/27 00:17:39;;;;;;;0.73;0.60;;;;;;;20.45;83.44;98397.53;5029787;27;102781;-74
2022/06/27 00:20:10;;;;;;;1.40;0.70;;;;;;;20.62;83.06;98392.88;5029239;27;103533;-75
2022/06/27 00:22:38;;;;;;;1.60;0.50;;;;;;;20.91;81.12;98410.91;5025467;27;104669;-74
2022/06/27 00:25:09;;;;;;;1.15;0.60;;;;;;;20.76;83.35;98435.84;5027683;27;103557;-75
2022/06/27 00:27:36;;;;;;;2.60;0.70;;;;;;;20.91;83.09;98457.38;5026002;27;102704;-75
2022/06/27 00:30:06;;;;;;;2.25;0.68;;;;;;;20.97;82.83;98470.06;5026892;27;102742;-74
2022/06/27 00:32:34;;;;;;;1.90;0.60;;;;;;;20.84;84.04;98504.75;5010088;27;104307;-74
2022/06/27 00:35:03;;;;;;;2.28;0.77;;;;;;;20.56;86.25;98552.75;5008810;27;103980;-73
2022/06/27 00:37:32;;;;;;;2.72;0.80;;;;;;;20.37;87.47;98579.19;5013720;27;103676;-73
2022/06/27 00:40:00;;;;;;;2.38;0.98;;;;;;;19.92;90.13;98644.19;5014299;27;103952;-74
2022/06/27 00:42:28;;;;;;;3.00;0.90;;;;;;;20.15;89.12;98643.28;5011802;27;106152;-74
2022/06/27 00:44:56;;;;;;;2.30;0.90;;;;;;;20.01;89.95;98643.19;5027002;27;103330;-74
2022/06/27 00:47:24;;;;;;;1.92;0.93;;;;;;;19.97;90.48;98650.72;5010425;27;103036;-74
2022/06/27 00:49:52;;;;;;;3.10;0.93;;;;;;;19.25;93.67;98662.31;5010608;27;103793;-74
2022/06/27 00:52:22;;;;;;;4.03;1.00;;;;;;;19.37;94.60;98666.31;5027587;27;104211;-74
2022/06/27 00:54:52;;;;;;;2.47;1.08;;;;;;;19.38;95.67;98677.88;5009443;27;104238;-74
2022/06/27 00:57:20;;;;;;;3.83;1.15;;;;;;;19.53;94.13;98662.84;5011033;27;102813;-74
2022/06/27 00:59:48;;;;;;;1.60;0.83;;;;;;;19.84;94.78;98642.38;5015076;27;104584;-74
2022/06/27 01:02:16;;;;;;;2.63;1.10;;;;;;;19.55;94.38;98628.66;5018746;27;104020;-75
2022/06/27 01:04:45;;;;;;;2.95;0.90;;;;;;;19.14;96.21;98606.41;5022899;27;104457;-75
2022/06/27 01:07:13;;;;;;;3.15;1.15;;;;;;;19.24;96.06;98582.09;5033300;27;102710;-74
2022/06/27 01:09:43;;;;;;;2.08;1.00;;;;;;;18.83;98.76;98560.72;5012864;27;102712;-75
2022/06/27 01:12:13;;;;;;;2.55;1.13;;;;;;;18.32;100.00;98504.75;5031515;27;103273;-74
2022/06/27 01:14:41;;;;;;;1.93;0.73;;;;;;;18.32;100.00;98459.28;5030483;27;103195;-75
2022/06/27 01:17:11;;;;;;;2.40;1.00;;;;;;;18.35;100.00;98507.94;5026295;27;103012;-73
2022/06/27 01:19:40;;;;;;;1.25;0.80;;;;;;;18.64;100.00;98496.78;5013494;27;103994;-74
2022/06/27 01:22:11;;;;;;;2.13;0.90;;;;;;;18.62;100.00;98460.50;5013439;27;104539;-73
2022/06/27 01:24:39;;;;;;;3.30;0.90;;;;;;;18.10;100.00;98457.25;5022493;27;104165;-73
2022/06/27 01:27:08;;;;;;;2.53;0.88;;;;;;;18.66;100.00;98459.16;5028765;27;102736;-73
2022/06/27 01:29:36;;;;;;;2.00;0.85;;;;;;;19.05;100.00;98447.59;5015469;27;104261;-73
2022/06/27 01:32:06;;;;;;;2.38;0.88;;;;;;;18.73;99.43;98447.63;5027948;27;105751;-73
2022/06/27 01:34:35;;;;;;;4.03;0.90;;;;;;;18.90;100.00;98438.56;5032222;27;103401;-73
2022/06/27 01:37:04;;;;;;;2.42;0.90;;;;;;;17.88;100.00;98413.25;5015160;27;103788;-73
2022/06/27 01:39:37;;;;;;;1.90;0.93;;;;;;;17.93;100.00;98395.75;5019950;27;104244;-73
2022/06/27 01:42:07;;;;;;;5.07;1.52;;;;;;;17.85;100.00;98385.00;5010884;27;105806;-73
2022/06/27 01:44:35;;;;;;;0.80;0.63;;;;;;;18.16;100.00;98384.41;5033076;27;103214;-73
2022/06/27 01:47:05;;;;;;;1.13;0.70;;;;;;;18.12;100.00;98388.41;5012593;27;102944;-73
2022/06/27 01:49:36;;;;;;;1.15;0.70;;;;;;;18.75;100.00;98402.78;5018118;27;104163;-74
2022/06/27 01:52:06;;;;;;;1.50;0.60;;;;;;;19.05;99.65;98410.13;5014069;27;103995;-74
2022/06/27 01:54:37;;;;;;;1.30;0.55;;;;;;;19.32;99.44;98400.81;5010934;27;103258;-73
2022/06/27 01:57:08;;;;;;;0.75;0.52;;;;;;;19.56;97.68;98407.97;5013806;27;102812;-74
2022/06/27 02:00:06;;;;;;;2.28;0.68;;;;;;;19.18;98.03;98406.06;5012313;27;103894;-72
2022/06/27 02:03:06;;;;;;;1.40;0.70;;;;;;;19.46;96.34;98415.34;5025419;27;103651;-73
2022/06/27 02:05:40;;;;;;;1.42;0.50;;;;;;;19.68;95.24;98402.03;5039629;27;103115;-74
2022/06/27 02:08:09;;;;;;;1.65;0.70;;;;;;;19.94;93.56;98408.94;5030842;27;103991;-74
2022/06/27 02:10:40;;;;;;;0.95;0.60;;;;;;;20.09;92.28;98420.56;5010197;27;103887;-74
2022/06/27 02:13:10;;;;;;;0.93;0.60;;;;;;;20.04;92.83;98417.59;5019242;27;104158;-73
2022/06/27 02:15:58;;;;;;;0.73;0.50;;;;;;;20.15;92.73;98396.53;5014747;27;105183;-73
2022/06/27 02:18:26;;;;;;;1.63;0.70;;;;;;;20.26;91.38;98400.72;5016110;27;102755;-74
2022/06/27 02:20:54;;;;;;;1.10;0.55;;;;;;;20.27;91.77;98398.88;5019423;27;104169;-73
2022/06/27 02:23:22;;;;;;;1.95;0.70;;;;;;;20.18;91.22;98398.88;5032109;27;103801;-73
2022/06/27 02:25:56;;;;;;;1.27;0.60;;;;;;;20.30;90.00;98401.16;5015588;27;103255;-73
2022/06/27 02:28:28;;;;;;;1.43;0.70;;;;;;;20.38;89.89;98404.63;5014999;27;102721;-73
2022/06/27 02:30:57;;;;;;;1.13;0.80;;;;;;;20.19;90.27;98405.91;5017164;27;102983;-73
2022/06/27 02:33:33;;;;;;;1.70;0.70;;;;;;;20.09;91.34;98410.69;5015711;27;103265;-73
2022/06/27 02:36:03;;;;;;;1.00;0.63;;;;;;;20.19;91.28;98400.56;5016193;27;104126;-73
2022/06/27 02:38:32;;;;;;;1.40;1.00;;;;;;;20.12;91.68;98385.38;5031165;27;102655;-74
2022/06/27 02:41:02;;;;;;;1.15;0.73;;;;;;;20.06;91.66;98392.28;5012492;27;104077;-73
2022/06/27 02:43:34;;;;;;;1.23;0.60;;;;;;;20.31;89.79;98392.13;5032559;27;104075;-74
2022/06/27 02:46:04;;;;;;;2.60;1.00;;;;;;;19.84;92.55;98400.28;5013916;27;106085;-74
2022/06/27 02:48:33;;;;;;;1.60;0.90;;;;;;;19.98;92.76;98384.28;5032113;27;102739;-74
2022/06/27 02:51:06;;;;;;;0.95;0.50;;;;;;;20.26;90.13;98373.06;5017087;27;104139;-73
2022/06/27 02:53:35;;;;;;;1.98;1.08;;;;;;;20.02;90.71;98377.53;5015661;27;104172;-74
2022/06/27 02:56:27;;;;;;;1.50;0.70;;;;;;;20.21;90.02;98390.47;5012423;27;104038;-74
2022/06/27 02:59:10;;;;;;;3.20;1.02;;;;;;;20.11;91.38;98389.88;5028473;27;102851;-74
2022/06/27 03:01:42;;;;;;;1.40;0.70;;;;;;;20.12;91.67;98378.16;5013709;27;104545;-74
2022/06/27 03:04:12;;;;;;;0.83;0.73;;;;;;;20.34;90.35;98364.94;5011562;27;104751;-74
2022/06/27 03:06:40;;;;;;;0.77;0.70;;;;;;;20.47;88.13;98359.78;5010528;27;104324;-73
2022/06/27 03:09:08;;;;;;;1.48;0.88;;;;;;;20.41;89.11;98350.63;5027940;27;103345;-75
2022/06/27 03:11:37;;;;;;;1.20;0.80;;;;;;;20.19;90.66;98368.38;5013358;27;102767;-73
2022/06/27 03:14:06;;;;;;;1.58;1.00;;;;;;;20.28;89.43;98389.78;5029710;27;104093;-73
2022/06/27 03:16:36;;;;;;;1.42;0.85;;;;;;;20.34;88.94;98381.03;5021707;27;105089;-73
2022/06/27 03:19:04;;;;;;;1.33;0.70;;;;;;;20.48;87.04;98380.25;5012437;27;103001;-73
2022/06/27 03:21:41;;;;;;;1.80;0.90;;;;;;;20.49;86.98;98376.56;5029278;27;104199;-73
2022/06/27 03:24:12;;;;;;;1.25;1.00;;;;;;;20.44;87.74;98378.94;5013847;27;103164;-73
2022/06/27 03:26:44;;;;;;;0.88;0.52;;;;;;;20.55;87.33;98373.13;5027939;27;103237;-73
2022/06/27 03:29:15;;;;;;;1.63;1.10;;;;;;;20.29;89.66;98380.75;5012524;27;103160;-73
2022/06/27 03:31:45;;;;;;;1.70;1.00;;;;;;;20.35;89.59;98382.72;5001729;27;104142;-73
2022/06/27 03:34:14;;;;;;;1.40;0.93;;;;;;;20.40;88.88;98380.31;5015386;27;104017;-73
2022/06/27 03:36:49;;;;;;;1.38;0.90;;;;;;;20.43;89.09;98377.28;5028670;27;103484;-73
2022/06/27 03:39:21;;;;;;;1.00;0.90;;;;;;;20.52;88.61;98394.97;5008693;27;102684;-73
2022/06/27 03:41:49;;;;;;;1.55;1.00;;;;;;;20.49;88.94;98400.72;5012955;27;104303;-73
2022/06/27 03:44:18;;;;;;;1.48;1.00;;;;;;;20.41;88.82;98406.09;5014111;27;103237;-73
2022/06/27 03:46:51;;;;;;;1.98;0.98;;;;;;;20.44;89.70;98413.81;5016943;27;105147;-73
2022/06/27 03:52:15;;;;;;;2.57;1.30;;;;;;;19.77;92.85;98437.66;5006835;27;104706;-73
2022/06/27 03:54:43;;;;;;;1.75;1.33;;;;;;;19.69;93.63;98418.94;5011030;27;103223;-71
2022/06/27 03:57:11;;;;;;;3.60;1.52;;;;;;;19.76;93.82;98390.44;5007687;27;105895;-71
2022/06/27 03:59:40;;;;;;;2.30;1.20;;;;;;;20.00;91.79;98363.50;5025082;27;103019;-70
2022/06/27 04:02:09;;;;;;;1.50;0.93;;;;;;;20.17;90.80;98373.09;5007876;27;103015;-70
2022/06/27 04:04:59;;;;;;;2.60;1.27;;;;;;;20.11;90.81;98384.53;5029312;27;104212;-71
2022/06/27 04:07:28;;;;;;;1.08;0.98;;;;;;;20.30;90.28;98348.38;5013372;27;104163;-71
2022/06/27 04:09:56;;;;;;;1.65;0.93;;;;;;;20.35;89.93;98363.94;5026730;27;102771;-70
2022/06/27 04:12:25;;;;;;;2.05;1.40;;;;;;;20.09;92.16;98389.25;5030279;27;102815;-70
2022/06/27 04:15:26;;;;;;;1.77;1.02;;;;;;;20.14;91.73;98375.28;5027216;27;104158;-70
2022/06/27 04:18:13;;;;;;;1.45;1.13;;;;;;;20.31;90.86;98376.03;5028960;27;103199;-70
2022/06/27 04:20:59;;;;;;;2.78;1.50;;;;;;;20.28;91.31;98408.56;5029202;27;102710;-71
2022/06/27 04:23:45;;;;;;;2.65;1.58;;;;;;;19.70;95.29;98399.19;5023800;27;103505;-71
2022/06/27 04:26:40;;;;;;;2.80;1.50;;;;;;;19.75;96.31;98402.19;5024354;27;103282;-71
2022/06/27 04:29:09;;;;;;;1.98;1.20;;;;;;;19.88;96.00;98367.59;5013896;27;104137;-71
2022/06/27 04:31:38;;;;;;;1.38;1.10;;;;;;;20.20;93.23;98359.31;5014542;27;104816;-71
2022/06/27 04:34:06;;;;;;;1.60;1.20;;;;;;;20.39;91.94;98362.53;5017466;27;104387;-70
2022/06/27 04:36:42;;;;;;;2.67;1.40;;;;;;;20.46;92.24;98356.28;5016305;27;103264;-74
2022/06/27 04:39:15;;;;;;;2.00;1.20;;;;;;;20.53;91.42;98343.81;5031800;27;103248;-75
2022/06/27 04:41:53;;;;;;;2.50;1.70;;;;;;;20.20;92.67;98335.19;5016762;27;102981;-74
2022/06/27 04:44:22;;;;;;;1.92;1.42;;;;;;;20.36;93.01;98317.28;5012090;27;103691;-74
2022/06/27 04:46:52;;;;;;;1.85;1.30;;;;;;;20.47;92.32;98315.00;5005316;27;103294;-74
2022/06/27 04:49:40;;;;;;;1.45;1.20;;;;;;;20.60;91.22;98317.91;5009579;27;103199;-73
2022/06/27 04:52:12;;;;;;;2.08;1.50;;;;;;;20.50;90.91;98320.03;5009023;27;103530;-74
2022/06/27 04:54:43;;;;;;;2.03;1.50;;;;;;;20.48;92.56;98329.28;5004715;27;104451;-74
2022/06/27 04:57:12;;;;;;;2.30;1.30;;;;;;;20.72;91.16;98320.97;5014155;27;104165;-74
2022/06/27 04:59:40;;;;;;;1.52;1.25;;;;;;;20.86;89.11;98325.50;5031337;27;105040;-74
2022/06/27 05:02:23;;;;;;;2.23;1.60;;;;;;;20.76;89.34;98349.13;5025819;27;102922;-74
2022/06/27 05:04:52;;;;;;;1.73;1.30;;;;;;;21.02;88.95;98370.16;5010462;27;103131;-74
2022/06/27 05:07:22;;;;;;;1.63;1.27;;;;;;;20.89;89.87;98381.53;5013891;27;104311;-75
2022/06/27 05:09:52;;;;;;;1.93;1.27;;;;;;;21.27;88.03;98383.16;5015476;27;105056;-75
2022/06/27 05:12:20;;;;;;;1.83;1.13;;;;;;;21.38;86.95;98381.88;5015027;27;102794;-74
2022/06/27 05:14:48;;;;;;;1.70;1.37;;;;;;;21.55;87.21;98387.88;5014778;27;104256;-74
2022/06/27 05:17:16;;;;;;;2.72;1.30;;;;;;;21.28;87.36;98398.25;5020194;27;105066;-74
2022/06/27 05:19:46;;;;;;;2.38;1.55;;;;;;;21.02;89.80;98402.38;5012248;27;102817;-74
2022/06/27 05:22:14;;;;;;;2.55;1.50;;;;;;;21.02;89.55;98419.34;5030449;27;103047;-76
2022/06/27 05:24:43;;;;;;;1.23;1.02;;;;;;;21.07;91.40;98424.16;5004532;27;103352;-75
2022/06/27 05:27:17;;;;;;;1.83;1.10;;;;;;;21.28;88.75;98432.34;5012481;27;103914;-72
2022/06/27 05:29:45;;;;;;;3.45;1.35;;;;;;;21.29;88.89;98437.53;5017565;27;104300;-75
2022/06/27 05:32:13;;;;;;;1.73;1.08;;;;;;;21.49;87.77;98440.50;5013901;27;102906;-75
2022/06/27 05:34:45;;;;;;;1.60;1.00;;;;;;;21.60;86.49;98436.50;5013283;27;104246;-75
2022/06/27 05:37:15;;;;;;;2.53;1.23;;;;;;;21.52;87.04;98447.38;5022920;27;104075;-72
2022/06/27 05:39:45;;;;;;;2.25;1.40;;;;;;;21.54;88.15;98451.53;5011132;27;103326;-75
2022/06/27 05:42:13;;;;;;;1.90;1.50;;;;;;;21.38;89.30;98451.72;5016558;27;102747;-75
2022/06/27 05:44:41;;;;;;;2.20;1.65;;;;;;;21.21;90.65;98448.38;5008845;27;104267;-74
2022/06/27 05:47:13;;;;;;;2.70;1.60;;;;;;;21.03;89.63;98485.44;5029552;27;103475;-73
2022/06/27 05:49:48;;;;;;;2.50;1.42;;;;;;;21.32;89.79;98495.44;5016499;27;103195;-75
2022/06/27 05:52:17;;;;;;;3.30;1.73;;;;;;;20.75;92.90;98492.41;5017018;27;102953;-75
2022/06/27 05:54:47;;;;;;;3.45;1.70;;;;;;;20.57;94.47;98497.25;5030903;27;103699;-75
2022/06/27 05:57:16;;;;;;;1.60;1.48;;;;;;;21.36;91.64;98489.50;5010377;27;103825;-74
2022/06/27 05:59:46;;;;;;;1.83;1.30;;;;;;;21.56;89.57;98503.22;5013113;27;103207;-75
2022/06/27 06:02:13;;;;;;;1.48;1.38;;;;;;;21.65;88.69;98517.41;5031286;27;102907;-75
2022/06/27 06:04:42;;;;;;;3.78;1.45;;;;;;;21.79;87.42;98522.81;5014057;27;104053;-75
2022/06/27 06:07:14;;;;;;;2.10;1.10;;;;;;;21.87;86.73;98516.53;5018463;27;104126;-75
2022/06/27 06:09:43;;;;;;;2.70;1.20;;;;;;;21.57;88.07;98520.19;5011970;27;103256;-75
2022/06/27 06:12:12;;;;;;;2.00;1.00;;;;;;;21.22;89.60;98521.75;5011452;27;102953;-71
2022/06/27 06:14:46;;;;;;;2.22;1.17;;;;;;;21.46;88.80;98528.72;5029406;27;102736;-71
2022/06/27 06:17:14;;;;;;;2.92;1.30;;;;;;;21.00;88.47;98531.44;5020884;27;103362;-71
2022/06/27 06:19:41;;;;;;;1.23;0.70;;;;;;;21.58;87.79;98548.75;5013023;27;104495;-71
2022/06/27 06:22:12;;;;;;;1.45;0.70;;;;;;;21.73;87.76;98547.75;5013189;27;103022;-71
2022/06/27 06:24:41;;;;;;;2.22;1.00;;;;;;;21.30;89.29;98535.09;5011730;27;103081;-71
2022/06/27 06:27:10;;;;;;;2.40;0.80;;;;;;;20.37;91.81;98536.28;5013948;27;104679;-71
2022/06/27 06:29:42;;;;;;;3.67;1.10;;;;;;;20.46;92.19;98548.63;5036529;27;103302;-71
2022/06/27 06:32:11;;;;;;;1.83;1.10;;;;;;;20.62;90.33;98533.28;5014912;27;102686;-70
2022/06/27 06:34:40;;;;;;;2.40;1.02;;;;;;;21.18;89.27;98523.13;5014174;27;102637;-70
2022/06/27 06:37:09;;;;;;;1.55;0.88;;;;;;;21.68;87.03;98535.88;5025544;27;104145;-70
2022/06/27 06:39:42;;;;;;;1.60;0.98;;;;;;;21.41;87.86;98547.25;5023036;27;107498;-71
2022/06/27 06:42:14;;;;;;;1.38;1.00;;;;;;;21.36;88.79;98550.50;5005836;27;102872;-71
2022/06/27 06:45:18;;;;;;;1.40;0.80;;;;;;;21.76;86.63;98535.78;5031247;27;104054;-71
2022/06/27 06:47:55;;;;;;;1.73;1.10;;;;;;;21.70;86.75;98542.72;5008299;27;103751;-70
2022/06/27 06:50:27;;;;;;;1.77;1.02;;;;;;;21.86;85.87;98552.47;5014535;27;104914;-76
2022/06/27 06:52:55;;;;;;;1.65;0.90;;;;;;;21.90;88.28;98546.56;5005215;27;102777;-75
2022/06/27 06:55:26;;;;;;;2.20;1.10;;;;;;;21.72;85.44;98539.88;5013855;27;102766;-75
2022/06/27 06:57:54;;;;;;;1.30;1.20;;;;;;;21.07;88.68;98551.25;5031810;27;103318;-75
2022/06/27 07:00:23;;;;;;;1.25;0.75;;;;;;;22.31;87.96;98546.91;5031915;27;103759;-75
2022/06/27 07:02:52;;;;;;;2.57;1.17;;;;;;;21.72;86.48;98546.09;5031406;27;102769;-76
2022/06/27 07:05:21;;;;;;;1.35;1.00;;;;;;;21.20;88.23;98556.84;5030316;27;104071;-76
2022/06/27 07:07:51;;;;;;;1.95;0.90;;;;;;;21.80;90.59;98555.91;5029914;27;104119;-76
2022/06/27 07:10:20;;;;;;;2.35;0.80;;;;;;;22.17;85.23;98569.28;5024723;27;103290;-76
2022/06/27 07:12:50;;;;;;;2.15;0.95;;;;;;;21.95;85.43;98568.34;5034538;27;102801;-76
2022/06/27 07:15:20;;;;;;;1.80;0.80;;;;;;;21.72;85.54;98566.75;5030592;27;103869;-76
2022/06/27 07:17:51;;;;;;;1.30;0.83;;;;;;;22.05;84.11;98573.47;5023419;27;103288;-76
2022/06/27 07:20:20;;;;;;;0.80;0.70;;;;;;;22.02;83.40;98571.16;5030093;27;103215;-76
2022/06/27 07:22:51;;;;;;;1.30;0.80;;;;;;;22.33;82.45;98568.25;5030411;27;103116;-76
2022/06/27 07:25:19;;;;;;;1.23;0.60;;;;;;;22.27;84.88;98553.69;5029694;27;102619;-76
2022/06/27 07:27:47;;;;;;;1.23;0.70;;;;;;;22.02;83.23;98551.47;5012921;27;104344;-76
2022/06/27 07:30:19;;;;;;;0.80;0.75;;;;;;;22.23;82.35;98544.31;5033606;27;103218;-76
2022/06/27 07:32:50;;;;;;;1.87;1.33;;;;;;;22.02;83.67;98556.84;5025729;27;102903;-76
2022/06/27 07:35:18;;;;;;;0.80;0.70;;;;;;;22.01;83.66;98560.59;5029995;27;104439;-76
2022/06/27 07:37:49;;;;;;;1.20;0.90;;;;;;;21.92;84.18;98567.91;5023372;27;103216;-76
2022/06/27 07:40:23;;;;;;;1.17;0.70;;;;;;;22.21;83.85;98567.88;5018104;27;104207;-76
2022/06/27 07:42:53;;;;;;;3.03;1.10;;;;;;;21.58;85.81;98570.25;5033026;27;102834;-76
2022/06/27 07:45:27;;;;;;;1.30;1.20;;;;;;;21.95;83.67;98583.69;5030921;27;103885;-76
2022/06/27 07:47:55;;;;;;;1.10;0.80;;;;;;;22.51;82.47;98585.63;5027716;27;104012;-76
2022/06/27 07:50:39;;;;;;;0.82;0.80;;;;;;;22.77;81.92;98595.06;5030053;27;103272;-76
2022/06/27 07:53:14;;;;;;;0.93;0.90;;;;;;;22.48;79.92;98610.25;5031280;27;103106;-76
2022/06/27 07:55:46;;;;;;;0.80;0.80;;;;;;;22.16;83.35;98607.13;5031545;27;103969;-76
2022/06/27 07:58:17;;;;;;;1.30;1.00;;;;;;;21.34;85.76;98607.09;5029255;27;103270;-76
2022/06/27 08:00:49;;;;;;;1.33;0.80;;;;;;;21.91;85.31;98611.94;5028732;27;103265;-76
2022/06/27 08:03:39;;;;;;;1.77;1.40;;;;;;;21.10;86.69;98623.41;5027663;27;103247;-76
2022/06/27 08:06:10;;;;;;;1.70;1.00;;;;;;;21.39;86.78;98622.66;5029280;27;104103;-76
2022/06/27 08:08:42;;;;;;;1.80;1.00;;;;;;;21.47;86.37;98637.91;5028257;27;103395;-76
2022/06/27 08:11:11;;;;;;;0.87;0.63;;;;;;;22.08;84.59;98626.91;5023316;27;103208;-76
2022/06/27 08:13:40;;;;;;;3.08;1.00;;;;;;;22.31;81.78;98630.34;5029127;27;102646;-76
2022/06/27 08:16:12;;;;;;;1.70;1.20;;;;;;;21.17;85.70;98626.19;5006687;27;103927;-76
2022/06/27 08:18:44;;;;;;;1.25;1.10;;;;;;;21.61;86.41;98623.66;5028996;27;103277;-76
2022/06/27 08:21:12;;;;;;;1.00;0.90;;;;;;;21.97;84.18;98630.03;5030196;27;103240;-76
2022/06/27 08:23:41;;;;;;;1.15;1.05;;;;;;;22.42;84.75;98624.47;5030886;27;102608;-76
2022/06/27 08:26:10;;;;;;;2.08;1.00;;;;;;;22.27;83.48;98620.09;5020407;27;103061;-76
2022/06/27 08:28:39;;;;;;;2.20;0.98;;;;;;;22.77;82.77;98625.53;5025921;27;103526;-76
2022/06/27 08:31:10;;;;;;;1.40;0.90;;;;;;;23.22;82.56;98637.00;5029104;27;103232;-76
2022/06/27 08:33:40;;;;;;;1.48;0.80;;;;;;;22.50;82.04;98637.81;5026874;27;102955;-76
2022/06/27 08:36:09;;;;;;;1.10;1.00;;;;;;;22.57;82.03;98632.50;5030781;27;104375;-76
2022/06/27 08:38:42;;;;;;;1.90;1.10;;;;;;;22.23;81.18;98632.28;5012527;27;103382;-76
2022/06/27 08:41:11;;;;;;;1.10;1.00;;;;;;;22.63;81.64;98655.16;5009050;27;103221;-76
2022/06/27 08:43:40;;;;;;;1.00;0.85;;;;;;;22.94;80.01;98650.38;5028906;27;102697;-76
2022/06/27 08:46:15;;;;;;;1.50;0.93;;;;;;;22.42;82.03;98656.78;5028147;27;102808;-76
2022/06/27 08:48:45;;;;;;;1.40;0.88;;;;;;;23.08;81.14;98646.81;5028493;27;104078;-76
2022/06/27 08:51:14;;;;;;;1.20;1.10;;;;;;;22.83;80.33;98651.72;5027938;27;103204;-76
2022/06/27 08:53:42;;;;;;;1.27;1.10;;;;;;;22.49;81.92;98659.53;5028025;27;102722;-76
2022/06/27 08:56:12;;;;;;;1.40;0.80;;;;;;;22.70;79.78;98665.03;5031207;27;103934;-76
2022/06/27 08:58:42;;;;;;;1.88;1.00;;;;;;;22.70;80.28;98669.56;5009933;27;104413;-77
2022/06/27 09:01:16;;;;;;;1.30;1.20;;;;;;;22.13;82.71;98666.69;5009648;27;103287;-76
2022/06/27 09:03:58;;;;;;;1.10;1.00;;;;;;;22.63;81.38;98658.69;5010740;27;102853;-76
2022/06/27 09:06:29;;;;;;;2.30;1.03;;;;;;;22.56;81.93;98655.09;5032299;27;102791;-76
2022/06/27 09:09:06;;;;;;;2.17;1.23;;;;;;;22.46;81.89;98647.28;5028614;27;103481;-76
2022/06/27 09:11:37;;;;;;;1.98;1.00;;;;;;;22.05;85.01;98648.78;5031382;27;103460;-76
2022/06/27 09:14:06;;;;;;;2.00;1.10;;;;;;;22.72;81.62;98654.06;5028768;27;102867;-76
2022/06/27 09:16:35;;;;;;;1.20;1.10;;;;;;;22.74;81.55;98660.06;5027919;27;104336;-76
2022/06/27 09:19:09;;;;;;;1.38;1.25;;;;;;;22.57;83.49;98680.16;5009260;27;104258;-76
2022/06/27 09:21:37;;;;;;;2.20;2.00;;;;;;;22.36;82.47;98675.50;5014018;27;104133;-75
2022/06/27 09:24:05;;;;;;;1.70;1.27;;;;;;;21.90;85.86;98682.88;5032471;27;102870;-76
2022/06/27 09:26:35;;;;;;;1.45;1.10;;;;;;;22.11;84.17;98674.09;5031213;27;102839;-75
2022/06/27 09:29:06;;;;;;;1.25;1.10;;;;;;;22.51;82.07;98665.59;5032930;27;104558;-76
2022/06/27 09:31:39;;;;;;;1.23;1.13;;;;;;;21.58;86.62;98675.09;5029493;27;103338;-76
2022/06/27 09:34:14;;;;;;;1.77;1.30;;;;;;;21.26;88.03;98679.69;5013751;27;104655;-75
2022/06/27 09:36:46;;;;;;;2.80;1.40;;;;;;;20.80;89.91;98672.56;5035030;27;103100;-75
2022/06/27 09:39:20;;;;;;;1.40;1.10;;;;;;;21.31;88.46;98663.88;5018751;27;103716;-76
2022/06/27 09:42:00;;;;;;;1.63;1.48;;;;;;;21.29;88.40;98663.22;5015601;27;103223;-75
2022/06/27 09:44:32;;;;;;;1.50;1.27;;;;;;;21.25;88.80;98655.69;5028604;27;102750;-75
2022/06/27 09:47:08;;;;;;;1.90;1.20;;;;;;;21.37;87.26;98644.34;5033110;27;102996;-76
2022/06/27 09:49:38;;;;;;;2.75;1.65;;;;;;;21.16;89.53;98646.88;5031085;27;103320;-75
2022/06/27 09:52:09;;;;;;;1.40;1.30;;;;;;;22.56;84.82;98641.63;5022564;27;102982;-75
2022/06/27 09:54:40;;;;;;;2.10;1.30;;;;;;;23.17;81.51;98651.06;5030177;27;102810;-76
2022/06/27 09:57:09;;;;;;;1.50;1.40;;;;;;;22.38;85.85;98668.06;5031573;27;103855;-76
2022/06/27 09:59:42;;;;;;;1.77;1.67;;;;;;;23.31;79.05;98665.50;5033409;27;103970;-77
2022/06/27 10:02:16;;;;;;;2.20;2.00;;;;;;;22.86;79.16;98672.88;5008847;27;104513;-77
2022/06/27 10:04:46;;;;;;;2.53;2.33;;;;;;;22.78;79.99;98677.53;5022746;27;102790;-76
2022/06/27 10:07:16;;;;;;;4.57;2.40;;;;;;;23.18;79.35;98679.69;5009671;27;103113;-76
2022/06/27 10:09:48;;;;;;;2.80;2.50;;;;;;;23.56;77.34;98683.81;5029841;27;104087;-75
2022/06/27 10:12:23;;;;;;;3.13;2.10;;;;;;;23.90;76.23;98693.03;5035959;27;103249;-75
2022/06/27 10:15:23;;;;;;;3.17;2.50;;;;;;;23.07;77.80;98690.97;5034250;27;102893;-75
2022/06/27 10:17:55;;;;;;;3.13;2.65;;;;;;;22.81;78.71;98698.72;5035249;27;104588;-74
2022/06/27 10:20:37;;;;;;;2.70;2.50;;;;;;;23.71;75.27;98715.28;5029044;27;104182;-75
2022/06/27 10:23:37;;;;;;;2.40;2.20;;;;;;;23.02;75.89;98723.00;5031062;27;103016;-74
2022/06/27 10:26:08;;;;;;;2.45;2.08;;;;;;;23.93;75.09;98727.69;4990224;27;103747;-75
2022/06/27 10:28:36;;;;;;;2.38;2.17;;;;;;;23.99;73.92;98743.13;5032879;27;102727;-74
2022/06/27 10:31:08;;;;;;;2.47;2.28;;;;;;;23.96;75.44;98748.91;5019375;27;104448;-75
2022/06/27 10:33:41;;;;;;;2.20;2.00;;;;;;;23.87;72.64;98750.91;5032133;27;103179;-74
2022/06/27 10:36:15;;;;;;;2.03;1.83;;;;;;;24.12;72.37;98749.50;5030948;27;102580;-74
2022/06/27 10:38:55;;;;;;;1.97;1.87;;;;;;;24.42;71.30;98744.72;5004816;27;103913;-75
2022/06/27 10:41:38;;;;;;;2.20;1.95;;;;;;;24.43;71.98;98749.09;5036707;27;103426;-76
2022/06/27 10:44:32;;;;;;;2.00;1.70;;;;;;;24.37;71.51;98741.78;5035043;27;103308;-75
2022/06/27 10:47:01;;;;;;;2.10;1.90;;;;;;;24.81;70.40;98743.34;5031674;27;102657;-75
2022/06/27 10:49:32;;;;;;;1.92;1.80;;;;;;;25.14;69.19;98745.16;5032865;27;102773;-77
2022/06/27 10:52:33;;;;;;;6.53;5.53;;;;;;;25.56;68.07;98738.63;5007994;27;104435;-74
2022/06/27 10:55:02;;;;;;;2.35;2.00;;;;;;;24.14;71.33;98735.81;5029266;27;103207;-74
2022/06/27 10:57:40;;;;;;;3.00;1.80;;;;;;;25.20;69.94;98740.78;5031862;27;102670;-78
2022/06/27 11:00:10;;;;;;;1.70;1.60;;;;;;;25.43;67.39;98732.34;5033709;27;104411;-77
2022/06/27 11:02:40;;;;;;;2.88;1.65;;;;;;;25.83;65.98;98736.78;5013175;27;104257;-79
2022/06/27 11:05:14;;;;;;;3.38;1.67;;;;;;;24.49;69.80;98724.00;5014487;27;104354;-76
2022/06/27 11:07:42;;;;;;;2.05;1.85;;;;;;;24.17;70.98;98724.59;5030125;27;102671;-76
2022/06/27 11:10:12;;;;;;;1.83;1.70;;;;;;;24.19;68.20;98733.34;5038831;27;102719;-76
2022/06/27 11:12:40;;;;;;;1.33;1.23;;;;;;;23.94;69.61;98740.19;5018190;27;104242;-75
2022/06/27 11:15:12;;;;;;;1.90;1.35;;;;;;;24.53;67.93;98736.09;5036692;27;104371;-82
2022/06/27 11:17:43;;;;;;;1.50;1.40;;;;;;;25.21;66.94;98739.75;5037761;27;102793;-80
2022/06/27 11:20:25;;;;;;;1.67;1.50;;;;;;;25.01;65.49;98738.84;5039317;27;102929;-77
2022/06/27 11:23:08;;;;;;;1.90;1.42;;;;;;;25.08;65.56;98745.09;5035018;27;103360;-74
2022/06/27 11:25:39;;;;;;;2.43;1.40;;;;;;;25.03;67.05;98756.53;5014785;27;103229;-75
2022/06/27 11:33:42;;;;;;;2.00;1.70;;;;;;;22.91;72.86;98755.81;5033736;27;103992;-81
2022/06/27 11:36:14;;;;;;;1.60;1.50;;;;;;;23.56;72.03;98753.91;5029958;27;103808;-75
2022/06/27 11:38:44;;;;;;;2.22;1.60;;;;;;;24.63;68.89;98752.75;5037155;27;102697;-78
2022/06/27 11:41:13;;;;;;;2.33;1.80;;;;;;;24.35;68.37;98754.66;5032943;27;102709;-74
2022/06/27 11:43:56;;;;;;;2.78;1.90;;;;;;;24.18;68.92;98764.06;5029356;27;103380;-75
2022/06/27 11:46:33;;;;;;;2.30;2.10;;;;;;;24.42;68.92;98760.91;5034259;27;104515;-75
2022/06/27 11:49:04;;;;;;;2.95;1.70;;;;;;;24.43;68.91;98757.19;5030306;27;102810;-75
2022/06/27 11:51:36;;;;;;;2.83;1.75;;;;;;;24.15;69.36;98764.44;5031037;27;104217;-75
2022/06/27 11:54:07;;;;;;;3.05;2.28;;;;;;;23.91;69.88;98763.00;5028789;27;103729;-76